Terminal Aerodrome Forecast
Issued by NWS Charleston, WV

Home | Current Version | Previous Version | Text Only | Print | Product List | Glossary On
Versions: 1 2 3 4 5 6 7 8 9 10 11 12 13 14 15 16 17 18 19 20 21 22 23 24 25 26 27 28
000
FTUS41 KRLX 061128
TAFBKW
TAF
KBKW 061128Z 0612/0712 21004KT 6SM BR OVC010
     FM061400 25005KT 5SM SHRA OVC015
     FM061600 26005KT 4SM SHRA VCTS OVC015CB
     FM061900 27005KT P6SM VCSH BKN025
     FM070300 00000KT P6SM BKN035
     FM070800 00000KT 5SM BR FEW025=

USA.gov is the U.S. government's official web portal to all federal, state and local government web resources and services.